createdAt,value
2019-03-18T00:00:21.937Z,5.03
2019-03-18T00:02:50.405Z,4.55
2019-03-18T00:05:18.992Z,4.22
2019-03-18T00:07:47.457Z,4.45
2019-03-18T00:10:16.085Z,4.45
2019-03-18T00:12:44.718Z,4.50
2019-03-18T00:15:13.113Z,4.40
2019-03-18T00:17:41.493Z,4.60
2019-03-18T00:20:10.981Z,4.37
2019-03-18T00:22:39.603Z,4.47
2019-03-18T00:25:10.778Z,4.87
2019-03-18T00:27:39.413Z,4.22
2019-03-18T00:30:20.460Z,4.30
2019-03-18T00:32:49.011Z,4.45
2019-03-18T00:35:17.398Z,3.90
2019-03-18T00:37:45.795Z,4.53
2019-03-18T00:40:19.287Z,4.75
2019-03-18T00:42:47.684Z,4.67
2019-03-18T00:45:16.139Z,4.50
2019-03-18T00:47:44.600Z,4.62
2019-03-18T00:50:16.584Z,4.45
2019-03-18T00:52:45.246Z,4.53
2019-03-18T00:55:13.860Z,4.22
2019-03-18T00:57:42.310Z,4.60
2019-03-18T01:00:17.522Z,4.65
2019-03-18T01:02:49.118Z,4.80
2019-03-18T01:05:16.266Z,4.60
2019-03-18T01:07:44.722Z,6.30
2019-03-18T01:10:19.097Z,5.03
2019-03-18T01:12:47.724Z,4.30
2019-03-18T01:15:27.583Z,5.60
2019-03-18T01:17:47.415Z,4.25
2019-03-18T01:20:18.097Z,4.35
2019-03-18T01:22:46.695Z,5.03
2019-03-18T01:25:15.294Z,4.78
2019-03-18T01:27:44.702Z,5.03
2019-03-18T01:30:14.321Z,4.37
2019-03-18T01:32:42.703Z,4.92
2019-03-18T01:35:11.442Z,5.37
2019-03-18T01:37:40.865Z,4.22
2019-03-18T01:40:11.569Z,4.67
2019-03-18T01:42:39.958Z,4.40
2019-03-18T01:45:09.721Z,5.05
2019-03-18T01:47:38.106Z,5.03
2019-03-18T01:50:12.580Z,5.35
2019-03-18T01:52:41.698Z,4.50
2019-03-18T01:55:10.742Z,4.92
2019-03-18T01:57:39.139Z,4.97
2019-03-18T02:00:10.604Z,4.58
2019-03-18T02:02:38.917Z,4.58
2019-03-18T02:05:08.990Z,4.33
2019-03-18T02:07:37.366Z,4.70
2019-03-18T02:10:11.799Z,4.95
2019-03-18T02:12:40.193Z,4.95
2019-03-18T02:15:12.364Z,4.65
2019-03-18T02:17:41.079Z,4.60
2019-03-18T02:20:13.972Z,4.15
2019-03-18T02:22:42.664Z,3.80
2019-03-18T02:25:11.484Z,4.47
2019-03-18T02:27:39.932Z,4.55
2019-03-18T02:30:14.263Z,4.55
2019-03-18T02:32:42.659Z,4.67
2019-03-18T02:35:11.347Z,5.55
2019-03-18T02:37:39.945Z,5.30
2019-03-18T02:40:10.184Z,4.72
2019-03-18T02:42:38.872Z,5.47
2019-03-18T02:45:10.218Z,4.80
2019-03-18T02:47:38.695Z,4.85
2019-03-18T02:50:08.629Z,5.10
2019-03-18T02:52:37.315Z,4.60
2019-03-18T02:55:06.890Z,5.17
2019-03-18T02:57:35.676Z,5.22
2019-03-18T03:00:09.882Z,5.10
2019-03-18T03:02:38.258Z,4.10
2019-03-18T03:05:08.635Z,4.75
2019-03-18T03:07:37.024Z,4.70
2019-03-18T03:10:07.057Z,4.90
2019-03-18T03:12:35.445Z,4.33
2019-03-18T03:15:04.808Z,4.50
2019-03-18T03:17:33.432Z,4.70
2019-03-18T03:20:02.062Z,4.45
2019-03-18T03:22:30.447Z,4.33
2019-03-18T03:24:59.295Z,4.58
2019-03-18T03:27:27.675Z,5.37
2019-03-18T03:29:56.072Z,4.92
2019-03-18T03:32:24.686Z,4.92
2019-03-18T03:34:53.358Z,4.55
2019-03-18T03:37:21.767Z,5.50
2019-03-18T03:39:50.133Z,5.00
2019-03-18T03:42:18.819Z,5.78
2019-03-18T03:44:47.275Z,4.75
2019-03-18T03:47:15.972Z,5.65
2019-03-18T03:49:44.619Z,5.17
2019-03-18T03:52:12.987Z,4.45
2019-03-18T03:54:41.685Z,5.17
2019-03-18T03:57:10.410Z,5.78
2019-03-18T03:59:38.804Z,4.78
2019-03-18T04:02:07.323Z,4.85
2019-03-18T04:04:36.215Z,5.28
2019-03-18T04:07:04.766Z,4.83
2019-03-18T04:09:33.140Z,5.10
2019-03-18T04:12:01.862Z,4.42
2019-03-18T04:14:30.237Z,4.97
2019-03-18T04:17:02.669Z,4.80
2019-03-18T04:19:28.783Z,4.90
2019-03-18T04:21:57.447Z,4.42
2019-03-18T04:24:25.834Z,4.50
2019-03-18T04:26:54.229Z,5.33
2019-03-18T04:29:23.334Z,4.80
2019-03-18T04:31:51.937Z,4.50
2019-03-18T04:34:20.584Z,5.60
2019-03-18T04:36:49.219Z,5.70
2019-03-18T04:39:17.604Z,5.12
2019-03-18T04:41:46.010Z,5.12
2019-03-18T04:44:14.657Z,5.60
2019-03-18T04:46:43.350Z,5.60
2019-03-18T04:49:11.994Z,5.97
2019-03-18T04:51:40.382Z,5.50
2019-03-18T04:54:09.023Z,6.20
2019-03-18T04:56:37.654Z,6.65
2019-03-18T04:59:06.041Z,6.10
2019-03-18T05:01:34.435Z,6.03
2019-03-18T05:04:02.823Z,6.28
2019-03-18T05:06:31.267Z,6.15
2019-03-18T05:08:59.654Z,6.47
2019-03-18T05:11:28.096Z,6.78
2019-03-18T05:13:56.585Z,5.58
2019-03-18T05:16:25.046Z,5.72
2019-03-18T05:18:53.447Z,6.87
2019-03-18T05:21:22.087Z,6.30
2019-03-18T05:23:50.496Z,5.75
2019-03-18T05:26:18.884Z,6.17
2019-03-18T05:28:47.268Z,6.45
2019-03-18T05:31:15.673Z,6.42
2019-03-18T05:33:44.059Z,6.60
2019-03-18T05:36:12.446Z,6.25
2019-03-18T05:38:40.857Z,7.33
2019-03-18T05:41:09.254Z,7.03
2019-03-18T05:43:37.908Z,6.65
2019-03-18T05:46:06.530Z,6.00
2019-03-18T05:48:35.158Z,5.33
2019-03-18T05:51:03.797Z,6.15
2019-03-18T05:53:32.418Z,5.28
2019-03-18T05:56:01.033Z,4.90
2019-03-18T05:58:29.494Z,6.15
2019-03-18T06:00:58.049Z,4.97
2019-03-18T06:03:26.677Z,5.72
2019-03-18T06:05:55.093Z,5.90
2019-03-18T06:08:23.732Z,6.80
2019-03-18T06:10:52.358Z,7.25
2019-03-18T06:13:20.747Z,5.62
2019-03-18T06:15:49.149Z,5.15
2019-03-18T06:18:17.816Z,5.42
2019-03-18T06:20:46.396Z,5.90
2019-03-18T06:23:14.798Z,5.55
2019-03-18T06:25:43.413Z,5.67
2019-03-18T06:28:11.881Z,6.17
2019-03-18T06:30:40.339Z,4.92
2019-03-18T06:33:08.957Z,4.70
2019-03-18T06:35:37.610Z,5.17
2019-03-18T06:38:05.991Z,5.10
2019-03-18T06:40:34.605Z,6.25
2019-03-18T06:43:03.242Z,5.10
2019-03-18T06:45:31.631Z,5.45
2019-03-18T06:48:05.273Z,5.45
2019-03-18T06:50:30.380Z,5.70
2019-03-18T06:52:58.795Z,4.55
2019-03-18T06:55:27.502Z,5.35
2019-03-18T06:57:56.116Z,5.45
2019-03-18T07:00:24.733Z,5.17
2019-03-18T07:02:53.361Z,6.00
2019-03-18T07:05:21.744Z,5.78
2019-03-18T07:07:50.147Z,5.25
2019-03-18T07:10:18.605Z,5.45
2019-03-18T07:12:47.001Z,5.03
2019-03-18T07:15:15.387Z,6.12
2019-03-18T07:17:44.078Z,4.67
2019-03-18T07:20:14.537Z,5.15
2019-03-18T07:22:42.976Z,4.65
2019-03-18T07:25:11.732Z,5.00
2019-03-18T07:27:40.360Z,5.37
2019-03-18T07:30:13.820Z,4.97
2019-03-18T07:32:42.208Z,5.28
2019-03-18T07:35:10.660Z,4.33
2019-03-18T07:37:39.069Z,4.90
2019-03-18T07:40:11.311Z,4.80
2019-03-18T07:42:39.974Z,5.37
2019-03-18T07:45:11.640Z,5.40
2019-03-18T07:47:40.056Z,5.42
2019-03-18T07:50:15.502Z,5.85
2019-03-18T07:52:44.277Z,5.47
2019-03-18T07:55:12.976Z,5.45
2019-03-18T07:57:41.616Z,5.50
2019-03-18T08:00:16.530Z,5.85
2019-03-18T08:02:45.109Z,6.70
2019-03-18T08:05:13.592Z,6.58
2019-03-18T08:07:42.218Z,6.20
2019-03-18T08:10:12.252Z,5.60
2019-03-18T08:12:40.652Z,5.10
2019-03-18T08:15:10.816Z,5.43
2019-03-18T08:17:39.487Z,6.15
2019-03-18T08:20:09.988Z,5.92
2019-03-18T08:22:38.360Z,5.60
2019-03-18T08:25:08.241Z,5.37
2019-03-18T08:27:36.647Z,4.80
2019-03-18T08:30:11.093Z,5.70
2019-03-18T08:32:39.477Z,5.20
2019-03-18T08:35:08.199Z,5.47
2019-03-18T08:37:36.713Z,4.72
2019-03-18T08:40:07.881Z,6.33
2019-03-18T08:42:36.281Z,4.83
2019-03-18T08:45:10.145Z,4.40
2019-03-18T08:47:38.527Z,4.78
2019-03-18T08:50:12.261Z,4.62
2019-03-18T08:52:40.145Z,4.62
2019-03-18T08:55:09.895Z,4.55
2019-03-18T08:57:38.282Z,3.95
2019-03-18T09:00:09.933Z,3.90
2019-03-18T09:02:38.331Z,4.33
2019-03-18T09:05:07.804Z,4.42
2019-03-18T09:07:36.504Z,4.08
2019-03-18T09:10:08.035Z,4.30
2019-03-18T09:12:36.673Z,4.20
2019-03-18T09:15:07.387Z,4.47
2019-03-18T09:17:35.824Z,4.27
2019-03-18T09:20:17.500Z,4.27
2019-03-18T09:22:45.941Z,4.00
2019-03-18T09:25:14.399Z,3.80
2019-03-18T09:27:42.860Z,4.90
2019-03-18T09:30:18.450Z,4.10
2019-03-18T09:32:46.860Z,5.40
2019-03-18T09:35:15.553Z,4.70
2019-03-18T09:37:44.163Z,4.70
2019-03-18T09:40:14.438Z,4.87
2019-03-18T09:42:42.829Z,5.40
2019-03-18T09:45:15.613Z,4.80
2019-03-18T09:47:44.194Z,4.87
2019-03-18T09:50:13.005Z,5.07
2019-03-18T09:52:41.768Z,4.80
2019-03-18T09:55:11.611Z,4.30
2019-03-18T09:57:39.977Z,5.10
2019-03-18T10:00:14.508Z,4.40
2019-03-18T10:02:43.014Z,4.97
2019-03-18T10:05:11.396Z,4.07
2019-03-18T10:07:39.774Z,4.20
2019-03-18T10:10:13.042Z,4.57
2019-03-18T10:12:41.461Z,4.63
2019-03-18T10:15:17.004Z,4.50
2019-03-18T10:17:45.380Z,3.57
2019-03-18T10:20:14.192Z,4.50
2019-03-18T10:22:42.786Z,4.50
2019-03-18T10:25:11.235Z,3.77
2019-03-18T10:27:39.766Z,4.67
2019-03-18T10:30:15.158Z,4.87
2019-03-18T10:32:43.625Z,4.10
2019-03-18T10:35:11.998Z,5.10
2019-03-18T10:37:40.368Z,4.03
2019-03-18T10:40:12.490Z,3.80
2019-03-18T10:42:41.281Z,4.40
2019-03-18T10:45:11.202Z,4.37
2019-03-18T10:47:39.579Z,3.90
2019-03-18T10:50:15.482Z,4.03
2019-03-18T10:52:43.967Z,4.20
2019-03-18T10:55:12.760Z,4.70
2019-03-18T10:57:41.428Z,3.70
2019-03-18T11:00:17.704Z,4.03
2019-03-18T11:02:46.093Z,4.13
2019-03-18T11:05:15.111Z,4.00
2019-03-18T11:07:43.458Z,3.57
2019-03-18T11:10:13.277Z,4.00
2019-03-18T11:12:41.720Z,4.50
2019-03-18T11:15:15.027Z,4.10
2019-03-18T11:17:43.402Z,3.93
2019-03-18T11:20:14.324Z,3.63
2019-03-18T11:22:42.948Z,3.03
2019-03-18T11:25:12.458Z,3.50
2019-03-18T11:27:41.088Z,3.80
2019-03-18T11:30:12.886Z,3.83
2019-03-18T11:32:41.252Z,3.57
2019-03-18T11:35:09.708Z,3.57
2019-03-18T11:37:38.392Z,3.60
2019-03-18T11:40:11.888Z,3.27
2019-03-18T11:42:40.504Z,3.27
2019-03-18T11:45:11.544Z,3.77
2019-03-18T11:47:39.937Z,4.47
2019-03-18T11:50:15.706Z,3.60
2019-03-18T11:52:44.281Z,4.57
2019-03-18T11:55:20.824Z,4.37
2019-03-18T11:57:49.451Z,5.30
2019-03-18T12:00:19.707Z,4.03
2019-03-18T12:02:48.147Z,3.80
2019-03-18T12:05:19.849Z,4.10
2019-03-18T12:07:48.217Z,4.07
2019-03-18T12:10:20.265Z,4.07
2019-03-18T12:12:48.868Z,4.30
2019-03-18T12:15:23.179Z,3.70
2019-03-18T12:17:51.813Z,3.60
2019-03-18T12:20:24.887Z,3.90
2019-03-18T12:22:50.435Z,4.20
2019-03-18T12:25:18.881Z,3.93
2019-03-18T12:27:47.276Z,4.10
2019-03-18T12:30:23.604Z,4.03
2019-03-18T12:32:52.225Z,4.13
2019-03-18T12:35:20.626Z,3.60
2019-03-18T12:37:49.311Z,4.03
2019-03-18T12:40:18.041Z,3.90
2019-03-18T12:42:46.490Z,4.40
2019-03-18T12:45:18.729Z,4.13
2019-03-18T12:47:47.523Z,4.17
2019-03-18T12:50:18.949Z,3.63
2019-03-18T12:52:47.347Z,3.90
2019-03-18T12:55:16.102Z,4.03
2019-03-18T12:57:44.544Z,4.60
2019-03-18T13:00:27.364Z,4.33
2019-03-18T13:02:55.816Z,3.77
2019-03-18T13:05:24.271Z,3.67
2019-03-18T13:07:52.967Z,4.20
2019-03-18T13:10:22.176Z,4.30
2019-03-18T13:12:50.864Z,4.20
2019-03-18T13:15:20.145Z,4.07
2019-03-18T13:17:48.845Z,4.43
2019-03-18T13:20:18.659Z,4.40
2019-03-18T13:22:47.045Z,4.50
2019-03-18T13:25:15.439Z,3.97
2019-03-18T13:27:44.133Z,4.20
2019-03-18T13:30:15.633Z,4.30
2019-03-18T13:32:44.452Z,4.87
2019-03-18T13:35:12.999Z,4.60
2019-03-18T13:37:41.516Z,4.17
2019-03-18T13:40:15.745Z,4.47
2019-03-18T13:42:44.284Z,3.93
2019-03-18T13:45:20.133Z,4.67
2019-03-18T13:47:48.878Z,4.20
2019-03-18T13:50:23.379Z,3.90
2019-03-18T13:52:51.989Z,4.13
2019-03-18T13:55:20.437Z,5.30
2019-03-18T13:57:48.827Z,4.70
2019-03-18T14:00:20.703Z,4.33
2019-03-18T14:02:49.398Z,4.50
2019-03-18T14:05:17.780Z,4.43
2019-03-18T14:07:58.980Z,4.40
2019-03-18T14:10:21.067Z,4.13
2019-03-18T14:12:49.512Z,4.43
2019-03-18T14:15:19.205Z,3.97
2019-03-18T14:17:47.658Z,4.17
2019-03-18T14:20:18.472Z,4.37
2019-03-18T14:22:47.104Z,4.70
2019-03-18T14:25:15.628Z,5.00
2019-03-18T14:27:44.000Z,4.87
2019-03-18T14:30:16.910Z,4.47
2019-03-18T14:32:45.226Z,5.17
2019-03-18T14:35:14.371Z,5.00
2019-03-18T14:37:42.891Z,6.03
2019-03-18T14:40:22.281Z,5.00
2019-03-18T14:42:50.733Z,4.90
2019-03-18T14:45:20.595Z,5.60
2019-03-18T14:47:48.998Z,5.78
2019-03-18T14:50:18.777Z,4.72
2019-03-18T14:52:47.516Z,4.87
2019-03-18T14:55:17.914Z,4.70
2019-03-18T14:57:46.303Z,4.67
2019-03-18T15:00:30.015Z,5.00
2019-03-18T15:02:58.713Z,5.80
2019-03-18T15:05:27.097Z,4.87
2019-03-18T15:07:56.310Z,4.60
2019-03-18T15:10:26.661Z,5.00
2019-03-18T15:12:55.218Z,5.97
2019-03-18T15:15:23.845Z,6.10
2019-03-18T15:17:52.266Z,4.93
2019-03-18T15:20:23.694Z,5.30
2019-03-18T15:22:52.172Z,4.90
2019-03-18T15:25:28.068Z,4.60
2019-03-18T15:27:56.458Z,5.40
2019-03-18T15:30:25.080Z,4.60
2019-03-18T15:32:53.783Z,4.07
2019-03-18T15:35:22.159Z,3.87
2019-03-18T15:37:50.548Z,4.33
2019-03-18T15:40:23.367Z,4.13
2019-03-18T15:42:51.743Z,3.87
2019-03-18T15:45:21.260Z,3.97
2019-03-18T15:47:49.692Z,3.63
2019-03-18T15:50:23.906Z,4.07
2019-03-18T15:52:52.350Z,4.43
2019-03-18T15:55:23.762Z,3.43
2019-03-18T15:57:51.011Z,3.20
2019-03-18T16:00:26.831Z,3.87
2019-03-18T16:02:55.204Z,4.47
2019-03-18T16:05:23.823Z,4.97
2019-03-18T16:07:52.274Z,4.20
2019-03-18T16:10:21.398Z,4.30
2019-03-18T16:12:49.899Z,4.77
2019-03-18T16:15:18.697Z,4.67
2019-03-18T16:17:47.483Z,6.70
2019-03-18T16:20:22.893Z,4.23
2019-03-18T16:22:51.254Z,5.90
2019-03-18T16:25:19.764Z,5.10
2019-03-18T16:27:48.398Z,4.93
2019-03-18T16:30:20.549Z,5.33
2019-03-18T16:32:48.936Z,4.77
2019-03-18T16:35:17.749Z,4.40
2019-03-18T16:37:46.149Z,4.63
2019-03-18T16:40:16.826Z,4.60
2019-03-18T16:42:45.202Z,4.50
2019-03-18T16:45:17.111Z,4.90
2019-03-18T16:47:45.486Z,4.97
2019-03-18T16:50:19.636Z,5.00
2019-03-18T16:52:48.010Z,4.47
2019-03-18T16:55:16.379Z,4.47
2019-03-18T16:57:44.771Z,4.17
2019-03-18T17:00:23.508Z,4.77
2019-03-18T17:02:51.956Z,5.20
2019-03-18T17:05:20.559Z,5.00
2019-03-18T17:07:48.950Z,4.53
2019-03-18T17:10:17.813Z,5.00
2019-03-18T17:12:46.195Z,5.30
2019-03-18T17:15:16.771Z,5.00
2019-03-18T17:17:45.153Z,4.75
2019-03-18T17:20:14.823Z,4.75
2019-03-18T17:22:49.371Z,4.55
2019-03-18T17:25:24.145Z,4.70
2019-03-18T17:27:52.591Z,5.30
2019-03-18T17:30:21.312Z,4.75
2019-03-18T17:32:49.805Z,5.22
2019-03-18T17:35:18.418Z,5.70
2019-03-18T17:37:47.064Z,4.80
2019-03-18T17:40:16.560Z,5.60
2019-03-18T17:42:45.075Z,5.35
2019-03-18T17:45:18.710Z,5.75
2019-03-18T17:47:47.681Z,6.33
2019-03-18T17:50:23.658Z,6.70
2019-03-18T17:53:02.219Z,7.30
2019-03-18T17:55:22.627Z,6.80
2019-03-18T17:57:51.091Z,7.87
2019-03-18T18:00:39.239Z,7.55
2019-03-18T18:03:07.955Z,7.25
2019-03-18T18:05:37.347Z,7.60
2019-03-18T18:08:05.973Z,7.40
2019-03-18T18:10:34.444Z,8.75
2019-03-18T18:13:04.261Z,8.10
2019-03-18T18:15:33.063Z,9.50
2019-03-18T18:18:01.452Z,7.92
2019-03-18T18:20:30.090Z,8.05
2019-03-18T18:22:58.720Z,9.45
2019-03-18T18:25:27.361Z,9.68
2019-03-18T18:27:56.051Z,9.10
2019-03-18T18:30:24.692Z,8.40
2019-03-18T18:32:53.080Z,8.98
2019-03-18T18:35:23.881Z,9.50
2019-03-18T18:37:52.247Z,8.30
2019-03-18T18:40:22.679Z,9.78
2019-03-18T18:42:51.135Z,9.98
2019-03-18T18:45:21.268Z,9.60
2019-03-18T18:47:49.827Z,9.53
2019-03-18T18:50:18.459Z,9.05
2019-03-18T18:52:46.904Z,10.43
2019-03-18T18:55:15.735Z,11.00
2019-03-18T18:57:44.117Z,11.10
2019-03-18T19:00:22.880Z,10.20
2019-03-18T19:02:51.509Z,11.18
2019-03-18T19:05:20.039Z,11.00
2019-03-18T19:07:48.512Z,12.93
2019-03-18T19:10:18.882Z,11.03
2019-03-18T19:12:47.289Z,11.05
2019-03-18T19:15:18.958Z,11.08
2019-03-18T19:17:54.225Z,10.45
2019-03-18T19:20:24.616Z,10.85
2019-03-18T19:22:52.971Z,12.40
2019-03-18T19:25:21.446Z,11.95
2019-03-18T19:27:50.067Z,11.53
2019-03-18T19:30:22.844Z,10.90
2019-03-18T19:32:51.520Z,10.48
2019-03-18T19:35:20.067Z,9.03
2019-03-18T19:37:48.825Z,7.87
2019-03-18T19:40:18.852Z,6.90
2019-03-18T19:42:47.875Z,6.22
2019-03-18T19:45:16.498Z,6.30
2019-03-18T19:47:45.185Z,5.00
2019-03-18T19:50:24.999Z,5.65
2019-03-18T19:52:53.718Z,6.50
2019-03-18T19:55:22.351Z,6.65
2019-03-18T19:57:51.487Z,6.25
2019-03-18T20:00:22.084Z,6.67
2019-03-18T20:02:51.009Z,6.80
2019-03-18T20:05:19.671Z,5.62
2019-03-18T20:07:48.679Z,6.58
2019-03-18T20:10:19.164Z,7.00
2019-03-18T20:12:48.043Z,6.90
2019-03-18T20:15:20.433Z,5.55
2019-03-18T20:17:49.531Z,5.20
2019-03-18T20:20:20.378Z,7.72
2019-03-18T20:22:48.930Z,6.30
2019-03-18T20:25:17.555Z,7.30
2019-03-18T20:27:46.326Z,12.23
2019-03-18T20:30:16.647Z,9.98
2019-03-18T20:32:45.406Z,7.65
2019-03-18T20:35:17.943Z,9.25
2019-03-18T20:37:46.960Z,8.40
2019-03-18T20:40:16.288Z,7.62
2019-03-18T20:42:45.143Z,7.50
2019-03-18T20:45:20.601Z,7.35
2019-03-18T20:47:49.733Z,7.97
2019-03-18T20:50:25.885Z,8.33
2019-03-18T20:52:54.394Z,9.05
2019-03-18T20:55:22.805Z,13.88
2019-03-18T20:57:51.699Z,11.40
2019-03-18T21:00:23.916Z,11.28
2019-03-18T21:02:52.719Z,12.23
2019-03-18T21:05:21.349Z,11.12
2019-03-18T21:07:49.764Z,11.03
2019-03-18T21:10:19.656Z,12.68
2019-03-18T21:12:48.396Z,11.48
2019-03-18T21:15:18.304Z,11.20
2019-03-18T21:17:47.420Z,11.50
2019-03-18T21:20:20.143Z,10.68
2019-03-18T21:22:48.853Z,10.53
2019-03-18T21:25:17.575Z,10.08
2019-03-18T21:27:46.045Z,9.23
2019-03-18T21:30:17.525Z,9.20
2019-03-18T21:32:46.005Z,9.78
2019-03-18T21:35:14.413Z,11.10
2019-03-18T21:37:43.279Z,10.55
2019-03-18T21:40:14.306Z,11.73
2019-03-18T21:42:42.996Z,9.80
2019-03-18T21:45:23.309Z,10.48
2019-03-18T21:47:51.127Z,11.25
2019-03-18T21:50:20.490Z,10.60
2019-03-18T21:52:49.345Z,12.47
2019-03-18T21:55:17.865Z,11.15
2019-03-18T21:57:47.343Z,11.88
2019-03-18T22:00:19.778Z,12.65
2019-03-18T22:02:48.263Z,13.50
2019-03-18T22:05:16.759Z,14.95
2019-03-18T22:07:45.459Z,14.38
2019-03-18T22:10:15.736Z,16.48
2019-03-18T22:12:44.144Z,17.82
2019-03-18T22:15:14.469Z,18.57
2019-03-18T22:17:43.177Z,17.42
2019-03-18T22:20:18.215Z,19.37
2019-03-18T22:22:46.670Z,18.90
2019-03-18T22:25:15.874Z,20.32
2019-03-18T22:27:44.323Z,21.70
2019-03-18T22:30:18.973Z,18.92
2019-03-18T22:32:47.906Z,21.57
2019-03-18T22:35:16.678Z,20.82
2019-03-18T22:37:45.344Z,22.25
2019-03-18T22:40:17.075Z,22.32
2019-03-18T22:42:45.483Z,21.60
2019-03-18T22:45:15.013Z,21.87
2019-03-18T22:47:43.406Z,21.40
2019-03-18T22:50:13.204Z,23.32
2019-03-18T22:52:41.674Z,21.05
2019-03-18T22:55:12.090Z,21.37
2019-03-18T22:57:40.792Z,20.77
2019-03-18T23:00:35.495Z,19.57
2019-03-18T23:03:04.054Z,18.77
2019-03-18T23:05:32.679Z,19.40
2019-03-18T23:08:01.078Z,19.55
2019-03-18T23:10:29.708Z,21.12
2019-03-18T23:12:58.353Z,18.87
2019-03-18T23:15:26.743Z,19.05
2019-03-18T23:17:55.135Z,20.45
2019-03-18T23:20:23.540Z,21.23
2019-03-18T23:22:52.177Z,22.58
2019-03-18T23:25:20.808Z,22.98
2019-03-18T23:27:49.194Z,21.70
2019-03-18T23:30:17.590Z,21.10
2019-03-18T23:32:46.048Z,22.70
2019-03-18T23:35:14.445Z,22.15
2019-03-18T23:37:42.849Z,21.40
2019-03-18T23:40:12.919Z,21.48
2019-03-18T23:42:41.548Z,23.35
2019-03-18T23:45:10.890Z,22.80
2019-03-18T23:47:39.333Z,24.15
2019-03-18T23:50:11.163Z,26.10
2019-03-18T23:52:39.553Z,25.85
2019-03-18T23:55:18.317Z,26.93
2019-03-18T23:57:39.440Z,26.70
